sensor_id;sensor_type;location;lat;lon;timestamp;temperature;humidity
69006;SHT31;56061;51.748;19.620;2024-03-08T00:02:36;-2.35;81.79
69006;SHT31;56061;51.748;19.620;2024-03-08T00:05:04;-2.36;81.71
69006;SHT31;56061;51.748;19.620;2024-03-08T00:07:32;-2.35;81.79
69006;SHT31;56061;51.748;19.620;2024-03-08T00:09:58;-2.35;81.89
69006;SHT31;56061;51.748;19.620;2024-03-08T00:12:25;-2.34;81.94
69006;SHT31;56061;51.748;19.620;2024-03-08T00:14:53;-2.34;81.95
69006;SHT31;56061;51.748;19.620;2024-03-08T00:17:21;-2.35;81.89
69006;SHT31;56061;51.748;19.620;2024-03-08T00:19:51;-2.35;81.83
69006;SHT31;56061;51.748;19.620;2024-03-08T00:22:18;-2.39;81.47
69006;SHT31;56061;51.748;19.620;2024-03-08T00:24:44;-2.44;81.19
69006;SHT31;56061;51.748;19.620;2024-03-08T00:27:11;-2.46;81.10
69006;SHT31;56061;51.748;19.620;2024-03-08T00:29:38;-2.50;80.96
69006;SHT31;56061;51.748;19.620;2024-03-08T00:32:07;-2.55;80.78
69006;SHT31;56061;51.748;19.620;2024-03-08T00:34:37;-2.59;80.78
69006;SHT31;56061;51.748;19.620;2024-03-08T00:37:04;-2.63;80.80
69006;SHT31;56061;51.748;19.620;2024-03-08T00:39:30;-2.66;80.79
69006;SHT31;56061;51.748;19.620;2024-03-08T00:41:58;-2.69;80.87
69006;SHT31;56061;51.748;19.620;2024-03-08T00:44:24;-2.72;80.72
69006;SHT31;56061;51.748;19.620;2024-03-08T00:46:51;-2.74;80.88
69006;SHT31;56061;51.748;19.620;2024-03-08T00:49:18;-2.73;81.23
69006;SHT31;56061;51.748;19.620;2024-03-08T00:51:45;-2.72;81.40
69006;SHT31;56061;51.748;19.620;2024-03-08T00:54:11;-2.72;81.59
69006;SHT31;56061;51.748;19.620;2024-03-08T00:56:38;-2.70;81.79
69006;SHT31;56061;51.748;19.620;2024-03-08T00:59:06;-2.69;81.88
69006;SHT31;56061;51.748;19.620;2024-03-08T01:01:33;-2.71;81.74
69006;SHT31;56061;51.748;19.620;2024-03-08T01:04:00;-2.71;81.74
69006;SHT31;56061;51.748;19.620;2024-03-08T01:06:26;-2.72;81.73
69006;SHT31;56061;51.748;19.620;2024-03-08T01:08:53;-2.75;81.60
69006;SHT31;56061;51.748;19.620;2024-03-08T01:11:18;-2.77;81.37
69006;SHT31;56061;51.748;19.620;2024-03-08T01:13:45;-2.80;81.30
69006;SHT31;56061;51.748;19.620;2024-03-08T01:16:13;-2.81;81.26
69006;SHT31;56061;51.748;19.620;2024-03-08T01:18:42;-2.82;81.21
69006;SHT31;56061;51.748;19.620;2024-03-08T01:21:10;-2.84;81.18
69006;SHT31;56061;51.748;19.620;2024-03-08T01:23:37;-2.87;81.14
69006;SHT31;56061;51.748;19.620;2024-03-08T01:26:03;-2.90;81.13
69006;SHT31;56061;51.748;19.620;2024-03-08T01:28:30;-2.96;81.10
69006;SHT31;56061;51.748;19.620;2024-03-08T01:30:57;-3.01;80.98
69006;SHT31;56061;51.748;19.620;2024-03-08T01:33:25;-3.04;80.84
69006;SHT31;56061;51.748;19.620;2024-03-08T01:35:53;-3.10;80.70
69006;SHT31;56061;51.748;19.620;2024-03-08T01:38:21;-3.15;80.60
69006;SHT31;56061;51.748;19.620;2024-03-08T01:40:48;-3.20;80.61
69006;SHT31;56061;51.748;19.620;2024-03-08T01:43:19;-3.22;80.69
69006;SHT31;56061;51.748;19.620;2024-03-08T01:45:47;-3.23;80.88
69006;SHT31;56061;51.748;19.620;2024-03-08T01:48:14;-3.26;81.11
69006;SHT31;56061;51.748;19.620;2024-03-08T01:50:44;-3.27;81.18
69006;SHT31;56061;51.748;19.620;2024-03-08T01:53:11;-3.30;81.23
69006;SHT31;56061;51.748;19.620;2024-03-08T01:55:38;-3.34;81.28
69006;SHT31;56061;51.748;19.620;2024-03-08T01:58:06;-3.37;81.41
69006;SHT31;56061;51.748;19.620;2024-03-08T02:00:33;-3.39;81.50
69006;SHT31;56061;51.748;19.620;2024-03-08T02:03:02;-3.43;81.50
69006;SHT31;56061;51.748;19.620;2024-03-08T02:05:30;-3.44;81.50
69006;SHT31;56061;51.748;19.620;2024-03-08T02:07:57;-3.44;81.66
69006;SHT31;56061;51.748;19.620;2024-03-08T02:10:24;-3.42;81.85
69006;SHT31;56061;51.748;19.620;2024-03-08T02:12:50;-3.42;81.96
69006;SHT31;56061;51.748;19.620;2024-03-08T02:15:17;-3.40;82.02
69006;SHT31;56061;51.748;19.620;2024-03-08T02:17:44;-3.39;82.19
69006;SHT31;56061;51.748;19.620;2024-03-08T02:20:10;-3.37;82.38
69006;SHT31;56061;51.748;19.620;2024-03-08T02:22:39;-3.35;82.43
69006;SHT31;56061;51.748;19.620;2024-03-08T02:25:06;-3.36;82.32
69006;SHT31;56061;51.748;19.620;2024-03-08T02:27:35;-3.38;82.22
69006;SHT31;56061;51.748;19.620;2024-03-08T02:30:01;-3.42;82.06
69006;SHT31;56061;51.748;19.620;2024-03-08T02:32:28;-3.47;82.00
69006;SHT31;56061;51.748;19.620;2024-03-08T02:34:56;-3.52;82.00
69006;SHT31;56061;51.748;19.620;2024-03-08T02:37:26;-3.57;82.00
69006;SHT31;56061;51.748;19.620;2024-03-08T02:39:54;-3.60;82.04
69006;SHT31;56061;51.748;19.620;2024-03-08T02:42:22;-3.63;82.15
69006;SHT31;56061;51.748;19.620;2024-03-08T02:44:49;-3.65;82.26
69006;SHT31;56061;51.748;19.620;2024-03-08T02:47:15;-3.67;82.32
69006;SHT31;56061;51.748;19.620;2024-03-08T02:49:42;-3.70;82.37
69006;SHT31;56061;51.748;19.620;2024-03-08T02:52:08;-3.71;82.40
69006;SHT31;56061;51.748;19.620;2024-03-08T02:54:35;-3.72;82.44
69006;SHT31;56061;51.748;19.620;2024-03-08T02:57:03;-3.72;82.56
69006;SHT31;56061;51.748;19.620;2024-03-08T02:59:30;-3.71;82.62
69006;SHT31;56061;51.748;19.620;2024-03-08T03:01:57;-3.71;82.60
69006;SHT31;56061;51.748;19.620;2024-03-08T03:04:24;-3.72;82.69
69006;SHT31;56061;51.748;19.620;2024-03-08T03:06:50;-3.70;82.69
69006;SHT31;56061;51.748;19.620;2024-03-08T03:09:17;-3.71;82.64
69006;SHT31;56061;51.748;19.620;2024-03-08T03:11:49;-3.73;82.60
69006;SHT31;56061;51.748;19.620;2024-03-08T03:14:16;-3.73;82.60
69006;SHT31;56061;51.748;19.620;2024-03-08T03:16:42;-3.76;82.60
69006;SHT31;56061;51.748;19.620;2024-03-08T03:19:10;-3.77;82.64
69006;SHT31;56061;51.748;19.620;2024-03-08T03:21:36;-3.78;82.70
69006;SHT31;56061;51.748;19.620;2024-03-08T03:24:04;-3.78;82.70
69006;SHT31;56061;51.748;19.620;2024-03-08T03:26:37;-3.78;82.70
69006;SHT31;56061;51.748;19.620;2024-03-08T03:29:05;-3.80;82.71
69006;SHT31;56061;51.748;19.620;2024-03-08T03:31:35;-3.81;82.71
69006;SHT31;56061;51.748;19.620;2024-03-08T03:34:02;-3.83;82.70
69006;SHT31;56061;51.748;19.620;2024-03-08T03:36:30;-3.84;82.69
69006;SHT31;56061;51.748;19.620;2024-03-08T03:38:57;-3.85;82.67
69006;SHT31;56061;51.748;19.620;2024-03-08T03:41:32;-3.87;82.73
69006;SHT31;56061;51.748;19.620;2024-03-08T03:43:58;-3.86;82.85
69006;SHT31;56061;51.748;19.620;2024-03-08T03:46:25;-3.86;82.90
69006;SHT31;56061;51.748;19.620;2024-03-08T03:51:24;-3.85;82.94
69006;SHT31;56061;51.748;19.620;2024-03-08T03:53:52;-3.83;83.02
69006;SHT31;56061;51.748;19.620;2024-03-08T03:56:19;-3.84;82.89
69006;SHT31;56061;51.748;19.620;2024-03-08T03:58:45;-3.84;82.87
69006;SHT31;56061;51.748;19.620;2024-03-08T04:01:12;-3.84;82.90
69006;SHT31;56061;51.748;19.620;2024-03-08T04:03:40;-3.84;82.86
69006;SHT31;56061;51.748;19.620;2024-03-08T04:06:09;-3.83;82.89
69006;SHT31;56061;51.748;19.620;2024-03-08T04:08:35;-3.83;82.96
69006;SHT31;56061;51.748;19.620;2024-03-08T04:11:02;-3.83;82.98
69006;SHT31;56061;51.748;19.620;2024-03-08T04:13:29;-3.83;82.98
69006;SHT31;56061;51.748;19.620;2024-03-08T04:15:55;-3.82;83.00
69006;SHT31;56061;51.748;19.620;2024-03-08T04:18:22;-3.81;82.99
69006;SHT31;56061;51.748;19.620;2024-03-08T04:20:48;-3.80;83.02
69006;SHT31;56061;51.748;19.620;2024-03-08T04:23:15;-3.78;83.06
69006;SHT31;56061;51.748;19.620;2024-03-08T04:25:42;-3.77;83.17
69006;SHT31;56061;51.748;19.620;2024-03-08T04:28:09;-3.74;83.18
69006;SHT31;56061;51.748;19.620;2024-03-08T04:30:38;-3.72;83.15
69006;SHT31;56061;51.748;19.620;2024-03-08T04:33:09;-3.72;83.02
69006;SHT31;56061;51.748;19.620;2024-03-08T04:35:36;-3.73;82.90
69006;SHT31;56061;51.748;19.620;2024-03-08T04:38:03;-3.74;82.79
69006;SHT31;56061;51.748;19.620;2024-03-08T04:40:31;-3.77;82.64
69006;SHT31;56061;51.748;19.620;2024-03-08T04:42:58;-3.81;82.38
69006;SHT31;56061;51.748;19.620;2024-03-08T04:45:25;-3.85;82.19
69006;SHT31;56061;51.748;19.620;2024-03-08T04:47:52;-3.88;82.08
69006;SHT31;56061;51.748;19.620;2024-03-08T04:50:19;-3.92;81.98
69006;SHT31;56061;51.748;19.620;2024-03-08T04:52:45;-3.94;81.96
69006;SHT31;56061;51.748;19.620;2024-03-08T04:55:12;-3.95;81.99
69006;SHT31;56061;51.748;19.620;2024-03-08T04:57:38;-3.96;82.00
69006;SHT31;56061;51.748;19.620;2024-03-08T05:00:05;-3.96;82.00
69006;SHT31;56061;51.748;19.620;2024-03-08T05:02:37;-3.98;81.97
69006;SHT31;56061;51.748;19.620;2024-03-08T05:05:07;-4.00;81.85
69006;SHT31;56061;51.748;19.620;2024-03-08T05:07:41;-4.03;81.73
69006;SHT31;56061;51.748;19.620;2024-03-08T05:10:11;-4.05;81.83
69006;SHT31;56061;51.748;19.620;2024-03-08T05:12:38;-4.06;81.84
69006;SHT31;56061;51.748;19.620;2024-03-08T05:15:05;-4.05;81.86
69006;SHT31;56061;51.748;19.620;2024-03-08T05:17:33;-4.03;81.89
69006;SHT31;56061;51.748;19.620;2024-03-08T05:20:00;-4.03;81.89
69006;SHT31;56061;51.748;19.620;2024-03-08T05:22:27;-4.02;81.81
69006;SHT31;56061;51.748;19.620;2024-03-08T05:24:54;-4.04;81.69
69006;SHT31;56061;51.748;19.620;2024-03-08T05:27:19;-4.05;81.61
69006;SHT31;56061;51.748;19.620;2024-03-08T05:29:46;-4.04;81.67
69006;SHT31;56061;51.748;19.620;2024-03-08T05:32:13;-4.03;81.79
69006;SHT31;56061;51.748;19.620;2024-03-08T05:34:40;-4.02;81.84
69006;SHT31;56061;51.748;19.620;2024-03-08T05:37:06;-4.01;81.87
69006;SHT31;56061;51.748;19.620;2024-03-08T05:39:33;-4.01;81.81
69006;SHT31;56061;51.748;19.620;2024-03-08T05:42:00;-3.99;81.91
69006;SHT31;56061;51.748;19.620;2024-03-08T05:44:26;-3.97;82.07
69006;SHT31;56061;51.748;19.620;2024-03-08T05:46:55;-3.94;82.11
69006;SHT31;56061;51.748;19.620;2024-03-08T05:49:22;-3.91;82.11
69006;SHT31;56061;51.748;19.620;2024-03-08T05:51:48;-3.89;82.20
69006;SHT31;56061;51.748;19.620;2024-03-08T05:54:15;-3.85;82.28
69006;SHT31;56061;51.748;19.620;2024-03-08T05:56:46;-3.81;82.36
69006;SHT31;56061;51.748;19.620;2024-03-08T05:59:14;-3.74;82.45
69006;SHT31;56061;51.748;19.620;2024-03-08T06:01:41;-3.70;82.52
69006;SHT31;56061;51.748;19.620;2024-03-08T06:04:08;-3.63;82.60
69006;SHT31;56061;51.748;19.620;2024-03-08T06:06:38;-3.57;82.63
69006;SHT31;56061;51.748;19.620;2024-03-08T06:09:04;-3.49;82.77
69006;SHT31;56061;51.748;19.620;2024-03-08T06:11:38;-3.41;82.79
69006;SHT31;56061;51.748;19.620;2024-03-08T06:14:04;-3.32;82.87
69006;SHT31;56061;51.748;19.620;2024-03-08T06:16:32;-3.23;82.90
69006;SHT31;56061;51.748;19.620;2024-03-08T06:19:02;-3.13;82.91
69006;SHT31;56061;51.748;19.620;2024-03-08T06:21:29;-3.03;83.01
69006;SHT31;56061;51.748;19.620;2024-03-08T06:23:55;-2.95;83.00
69006;SHT31;56061;51.748;19.620;2024-03-08T06:26:24;-2.86;83.03
69006;SHT31;56061;51.748;19.620;2024-03-08T06:28:55;-2.76;83.00
69006;SHT31;56061;51.748;19.620;2024-03-08T06:31:23;-2.68;83.00
69006;SHT31;56061;51.748;19.620;2024-03-08T06:33:50;-2.59;83.07
69006;SHT31;56061;51.748;19.620;2024-03-08T06:36:17;-2.50;83.00
69006;SHT31;56061;51.748;19.620;2024-03-08T06:38:45;-2.41;82.99
69006;SHT31;56061;51.748;19.620;2024-03-08T06:41:12;-2.32;83.00
69006;SHT31;56061;51.748;19.620;2024-03-08T06:43:45;-2.21;83.08
69006;SHT31;56061;51.748;19.620;2024-03-08T06:46:14;-2.10;83.10
69006;SHT31;56061;51.748;19.620;2024-03-08T06:48:42;-2.00;83.10
69006;SHT31;56061;51.748;19.620;2024-03-08T06:51:09;-1.89;83.10
69006;SHT31;56061;51.748;19.620;2024-03-08T06:53:37;-1.78;83.10
69006;SHT31;56061;51.748;19.620;2024-03-08T06:56:05;-1.66;83.14
69006;SHT31;56061;51.748;19.620;2024-03-08T06:58:33;-1.55;83.14
69006;SHT31;56061;51.748;19.620;2024-03-08T07:01:00;-1.43;83.09
69006;SHT31;56061;51.748;19.620;2024-03-08T07:03:30;-1.31;83.00
69006;SHT31;56061;51.748;19.620;2024-03-08T07:05:58;-1.18;82.95
69006;SHT31;56061;51.748;19.620;2024-03-08T07:08:25;-1.06;82.85
69006;SHT31;56061;51.748;19.620;2024-03-08T07:10:53;-0.94;82.79
69006;SHT31;56061;51.748;19.620;2024-03-08T07:13:20;-0.80;82.76
69006;SHT31;56061;51.748;19.620;2024-03-08T07:15:47;-0.68;82.65
69006;SHT31;56061;51.748;19.620;2024-03-08T07:18:14;-0.56;82.44
69006;SHT31;56061;51.748;19.620;2024-03-08T07:20:41;-0.43;82.36
69006;SHT31;56061;51.748;19.620;2024-03-08T07:23:09;-0.33;82.13
69006;SHT31;56061;51.748;19.620;2024-03-08T07:25:37;-0.21;82.00
69006;SHT31;56061;51.748;19.620;2024-03-08T07:28:05;-0.10;81.86
69006;SHT31;56061;51.748;19.620;2024-03-08T07:30:35;0.01;81.63
69006;SHT31;56061;51.748;19.620;2024-03-08T07:33:11;0.13;81.33
69006;SHT31;56061;51.748;19.620;2024-03-08T07:35:39;0.25;81.08
69006;SHT31;56061;51.748;19.620;2024-03-08T07:38:07;0.37;80.70
69006;SHT31;56061;51.748;19.620;2024-03-08T07:40:36;0.47;80.47
69006;SHT31;56061;51.748;19.620;2024-03-08T07:43:07;0.58;80.35
69006;SHT31;56061;51.748;19.620;2024-03-08T07:45:34;0.68;80.18
69006;SHT31;56061;51.748;19.620;2024-03-08T07:48:02;0.78;80.10
69006;SHT31;56061;51.748;19.620;2024-03-08T07:50:29;0.87;80.06
69006;SHT31;56061;51.748;19.620;2024-03-08T07:52:56;0.95;79.86
69006;SHT31;56061;51.748;19.620;2024-03-08T07:55:23;1.04;79.67
69006;SHT31;56061;51.748;19.620;2024-03-08T07:57:50;1.14;79.41
69006;SHT31;56061;51.748;19.620;2024-03-08T08:00:17;1.24;79.30
69006;SHT31;56061;51.748;19.620;2024-03-08T08:02:45;1.34;79.20
69006;SHT31;56061;51.748;19.620;2024-03-08T08:05:15;1.42;78.97
69006;SHT31;56061;51.748;19.620;2024-03-08T08:07:44;1.50;78.70
69006;SHT31;56061;51.748;19.620;2024-03-08T08:10:16;1.57;78.50
69006;SHT31;56061;51.748;19.620;2024-03-08T08:12:49;1.62;78.25
69006;SHT31;56061;51.748;19.620;2024-03-08T08:15:15;1.66;78.10
69006;SHT31;56061;51.748;19.620;2024-03-08T08:17:42;1.70;78.03
69006;SHT31;56061;51.748;19.620;2024-03-08T08:20:09;1.73;77.89
69006;SHT31;56061;51.748;19.620;2024-03-08T08:22:38;1.80;77.80
69006;SHT31;56061;51.748;19.620;2024-03-08T08:25:06;1.86;77.68
69006;SHT31;56061;51.748;19.620;2024-03-08T08:27:34;1.92;77.34
69006;SHT31;56061;51.748;19.620;2024-03-08T08:30:03;1.97;77.17
69006;SHT31;56061;51.748;19.620;2024-03-08T08:32:34;2.05;77.09
69006;SHT31;56061;51.748;19.620;2024-03-08T08:35:10;2.12;76.82
69006;SHT31;56061;51.748;19.620;2024-03-08T08:37:38;2.17;76.50
69006;SHT31;56061;51.748;19.620;2024-03-08T08:40:06;2.22;76.40
69006;SHT31;56061;51.748;19.620;2024-03-08T08:42:40;2.28;76.24
69006;SHT31;56061;51.748;19.620;2024-03-08T08:45:08;2.37;76.14
69006;SHT31;56061;51.748;19.620;2024-03-08T08:47:43;2.44;75.98
69006;SHT31;56061;51.748;19.620;2024-03-08T08:50:12;2.51;76.00
69006;SHT31;56061;51.748;19.620;2024-03-08T08:52:39;2.57;75.74
69006;SHT31;56061;51.748;19.620;2024-03-08T08:55:07;2.63;75.37
69006;SHT31;56061;51.748;19.620;2024-03-08T08:57:34;2.71;75.30
69006;SHT31;56061;51.748;19.620;2024-03-08T09:00:02;2.77;75.23
69006;SHT31;56061;51.748;19.620;2024-03-08T09:02:34;2.84;74.58
69006;SHT31;56061;51.748;19.620;2024-03-08T09:05:01;2.89;74.32
69006;SHT31;56061;51.748;19.620;2024-03-08T09:07:28;2.96;74.22
69006;SHT31;56061;51.748;19.620;2024-03-08T09:09:55;3.02;73.99
69006;SHT31;56061;51.748;19.620;2024-03-08T09:12:24;3.10;73.80
69006;SHT31;56061;51.748;19.620;2024-03-08T09:14:50;3.17;73.63
69006;SHT31;56061;51.748;19.620;2024-03-08T09:17:17;3.25;73.33
69006;SHT31;56061;51.748;19.620;2024-03-08T09:19:46;3.34;73.24
69006;SHT31;56061;51.748;19.620;2024-03-08T09:22:14;3.40;72.84
69006;SHT31;56061;51.748;19.620;2024-03-08T09:24:40;3.44;72.72
69006;SHT31;56061;51.748;19.620;2024-03-08T09:27:09;3.50;72.53
69006;SHT31;56061;51.748;19.620;2024-03-08T09:29:36;3.56;72.32
69006;SHT31;56061;51.748;19.620;2024-03-08T09:32:02;3.60;71.95
69006;SHT31;56061;51.748;19.620;2024-03-08T09:34:29;3.64;71.97
69006;SHT31;56061;51.748;19.620;2024-03-08T09:37:03;3.68;71.72
69006;SHT31;56061;51.748;19.620;2024-03-08T09:39:31;3.73;71.41
69006;SHT31;56061;51.748;19.620;2024-03-08T09:41:59;3.79;71.19
69006;SHT31;56061;51.748;19.620;2024-03-08T09:44:27;3.84;71.01
69006;SHT31;56061;51.748;19.620;2024-03-08T09:46:55;3.91;70.67
69006;SHT31;56061;51.748;19.620;2024-03-08T09:49:22;3.96;70.29
69006;SHT31;56061;51.748;19.620;2024-03-08T09:51:48;4.03;70.44
69006;SHT31;56061;51.748;19.620;2024-03-08T09:54:19;4.13;70.23
69006;SHT31;56061;51.748;19.620;2024-03-08T09:56:49;4.18;69.99
69006;SHT31;56061;51.748;19.620;2024-03-08T09:59:18;4.26;69.88
69006;SHT31;56061;51.748;19.620;2024-03-08T10:01:54;4.33;69.27
69006;SHT31;56061;51.748;19.620;2024-03-08T10:04:22;4.39;69.16
69006;SHT31;56061;51.748;19.620;2024-03-08T10:06:49;4.47;68.19
69006;SHT31;56061;51.748;19.620;2024-03-08T10:09:16;4.51;67.50
69006;SHT31;56061;51.748;19.620;2024-03-08T10:11:43;4.54;67.16
69006;SHT31;56061;51.748;19.620;2024-03-08T10:14:09;4.58;67.39
69006;SHT31;56061;51.748;19.620;2024-03-08T10:16:40;4.65;67.34
69006;SHT31;56061;51.748;19.620;2024-03-08T10:19:06;4.66;67.27
69006;SHT31;56061;51.748;19.620;2024-03-08T10:21:34;4.67;67.23
69006;SHT31;56061;51.748;19.620;2024-03-08T10:24:02;4.72;67.46
69006;SHT31;56061;51.748;19.620;2024-03-08T10:26:29;4.79;66.74
69006;SHT31;56061;51.748;19.620;2024-03-08T10:28:57;4.84;66.69
69006;SHT31;56061;51.748;19.620;2024-03-08T10:31:24;4.87;66.35
69006;SHT31;56061;51.748;19.620;2024-03-08T10:33:51;4.92;66.24
69006;SHT31;56061;51.748;19.620;2024-03-08T10:36:18;4.95;66.50
69006;SHT31;56061;51.748;19.620;2024-03-08T10:38:45;5.01;66.42
69006;SHT31;56061;51.748;19.620;2024-03-08T10:41:14;5.08;65.88
69006;SHT31;56061;51.748;19.620;2024-03-08T10:46:40;5.18;65.51
69006;SHT31;56061;51.748;19.620;2024-03-08T10:49:25;5.20;65.65
69006;SHT31;56061;51.748;19.620;2024-03-08T10:52:02;5.22;65.69
69006;SHT31;56061;51.748;19.620;2024-03-08T10:54:31;5.28;65.85
69006;SHT31;56061;51.748;19.620;2024-03-08T10:57:01;5.33;65.42
69006;SHT31;56061;51.748;19.620;2024-03-08T10:59:32;5.38;65.35
69006;SHT31;56061;51.748;19.620;2024-03-08T11:02:00;5.42;65.35
69006;SHT31;56061;51.748;19.620;2024-03-08T11:04:27;5.48;65.59
69006;SHT31;56061;51.748;19.620;2024-03-08T11:07:00;5.58;65.63
69006;SHT31;56061;51.748;19.620;2024-03-08T11:09:32;5.66;65.20
69006;SHT31;56061;51.748;19.620;2024-03-08T11:12:18;5.70;64.41
69006;SHT31;56061;51.748;19.620;2024-03-08T11:14:53;5.73;63.78
69006;SHT31;56061;51.748;19.620;2024-03-08T11:17:25;5.76;64.05
69006;SHT31;56061;51.748;19.620;2024-03-08T11:22:48;5.80;63.15
69006;SHT31;56061;51.748;19.620;2024-03-08T11:28:10;5.88;63.25
69006;SHT31;56061;51.748;19.620;2024-03-08T11:33:22;6.03;62.64
69006;SHT31;56061;51.748;19.620;2024-03-08T11:35:49;6.05;62.22
69006;SHT31;56061;51.748;19.620;2024-03-08T11:38:15;6.11;62.65
69006;SHT31;56061;51.748;19.620;2024-03-08T11:40:43;6.12;62.51
69006;SHT31;56061;51.748;19.620;2024-03-08T11:43:16;6.10;61.83
69006;SHT31;56061;51.748;19.620;2024-03-08T11:45:42;6.10;61.26
69006;SHT31;56061;51.748;19.620;2024-03-08T11:48:09;6.11;61.30
69006;SHT31;56061;51.748;19.620;2024-03-08T11:50:38;6.16;61.84
69006;SHT31;56061;51.748;19.620;2024-03-08T11:53:05;6.18;61.50
69006;SHT31;56061;51.748;19.620;2024-03-08T11:55:32;6.21;61.46
69006;SHT31;56061;51.748;19.620;2024-03-08T11:58:02;6.23;61.46
69006;SHT31;56061;51.748;19.620;2024-03-08T12:00:29;6.27;61.24
69006;SHT31;56061;51.748;19.620;2024-03-08T12:03:02;6.30;60.77
69006;SHT31;56061;51.748;19.620;2024-03-08T12:05:33;6.35;60.85
69006;SHT31;56061;51.748;19.620;2024-03-08T12:08:01;6.43;61.11
69006;SHT31;56061;51.748;19.620;2024-03-08T12:10:29;6.46;60.76
69006;SHT31;56061;51.748;19.620;2024-03-08T12:12:57;6.53;60.32
69006;SHT31;56061;51.748;19.620;2024-03-08T12:15:29;6.61;59.82
69006;SHT31;56061;51.748;19.620;2024-03-08T12:18:00;6.64;60.04
69006;SHT31;56061;51.748;19.620;2024-03-08T12:20:28;6.68;60.14
69006;SHT31;56061;51.748;19.620;2024-03-08T12:22:58;6.75;60.53
69006;SHT31;56061;51.748;19.620;2024-03-08T12:25:32;6.83;60.72
69006;SHT31;56061;51.748;19.620;2024-03-08T12:28:09;6.90;60.22
69006;SHT31;56061;51.748;19.620;2024-03-08T12:30:45;6.92;58.87
69006;SHT31;56061;51.748;19.620;2024-03-08T12:33:14;6.93;58.81
69006;SHT31;56061;51.748;19.620;2024-03-08T12:35:49;6.95;58.64
69006;SHT31;56061;51.748;19.620;2024-03-08T12:38:22;6.96;58.24
69006;SHT31;56061;51.748;19.620;2024-03-08T12:40:54;7.01;58.54
69006;SHT31;56061;51.748;19.620;2024-03-08T12:43:23;7.08;57.95
69006;SHT31;56061;51.748;19.620;2024-03-08T12:45:49;7.13;56.55
69006;SHT31;56061;51.748;19.620;2024-03-08T12:48:17;7.16;56.90
69006;SHT31;56061;51.748;19.620;2024-03-08T12:50:45;7.20;56.92
69006;SHT31;56061;51.748;19.620;2024-03-08T12:53:14;7.22;56.74
69006;SHT31;56061;51.748;19.620;2024-03-08T12:55:40;7.25;56.60
69006;SHT31;56061;51.748;19.620;2024-03-08T12:58:07;7.28;56.54
69006;SHT31;56061;51.748;19.620;2024-03-08T13:00:34;7.35;56.71
69006;SHT31;56061;51.748;19.620;2024-03-08T13:03:09;7.40;55.98
69006;SHT31;56061;51.748;19.620;2024-03-08T13:05:37;7.45;55.51
69006;SHT31;56061;51.748;19.620;2024-03-08T13:08:06;7.46;55.57
69006;SHT31;56061;51.748;19.620;2024-03-08T13:10:40;7.49;55.06
69006;SHT31;56061;51.748;19.620;2024-03-08T13:13:10;7.53;55.36
69006;SHT31;56061;51.748;19.620;2024-03-08T13:15:40;7.54;55.18
69006;SHT31;56061;51.748;19.620;2024-03-08T13:18:07;7.56;55.22
69006;SHT31;56061;51.748;19.620;2024-03-08T13:20:35;7.57;55.81
69006;SHT31;56061;51.748;19.620;2024-03-08T13:23:13;7.59;56.02
69006;SHT31;56061;51.748;19.620;2024-03-08T13:25:39;7.66;56.48
69006;SHT31;56061;51.748;19.620;2024-03-08T13:28:07;7.74;55.97
69006;SHT31;56061;51.748;19.620;2024-03-08T13:30:35;7.78;55.79
69006;SHT31;56061;51.748;19.620;2024-03-08T13:33:01;7.83;55.48
69006;SHT31;56061;51.748;19.620;2024-03-08T13:35:31;7.87;54.45
69006;SHT31;56061;51.748;19.620;2024-03-08T13:37:59;7.87;54.54
69006;SHT31;56061;51.748;19.620;2024-03-08T13:40:25;7.88;55.06
69006;SHT31;56061;51.748;19.620;2024-03-08T13:42:52;7.88;55.21
69006;SHT31;56061;51.748;19.620;2024-03-08T13:45:19;7.91;55.81
69006;SHT31;56061;51.748;19.620;2024-03-08T13:47:50;7.96;55.85
69006;SHT31;56061;51.748;19.620;2024-03-08T13:50:20;8.01;55.69
69006;SHT31;56061;51.748;19.620;2024-03-08T13:52:50;8.04;55.93
69006;SHT31;56061;51.748;19.620;2024-03-08T13:55:23;8.06;56.09
69006;SHT31;56061;51.748;19.620;2024-03-08T13:57:53;8.11;56.05
69006;SHT31;56061;51.748;19.620;2024-03-08T14:00:20;8.18;56.14
69006;SHT31;56061;51.748;19.620;2024-03-08T14:02:53;8.23;55.76
69006;SHT31;56061;51.748;19.620;2024-03-08T14:05:20;8.28;55.96
69006;SHT31;56061;51.748;19.620;2024-03-08T14:07:47;8.36;56.19
69006;SHT31;56061;51.748;19.620;2024-03-08T14:10:16;8.45;55.94
69006;SHT31;56061;51.748;19.620;2024-03-08T14:12:47;8.50;55.45
69006;SHT31;56061;51.748;19.620;2024-03-08T14:15:16;8.51;54.73
69006;SHT31;56061;51.748;19.620;2024-03-08T14:17:43;8.50;54.26
69006;SHT31;56061;51.748;19.620;2024-03-08T14:20:13;8.48;54.05
69006;SHT31;56061;51.748;19.620;2024-03-08T14:22:39;8.44;54.17
69006;SHT31;56061;51.748;19.620;2024-03-08T14:25:06;8.41;54.31
69006;SHT31;56061;51.748;19.620;2024-03-08T14:27:46;8.41;54.48
69006;SHT31;56061;51.748;19.620;2024-03-08T14:30:13;8.43;54.61
69006;SHT31;56061;51.748;19.620;2024-03-08T14:32:44;8.43;54.65
69006;SHT31;56061;51.748;19.620;2024-03-08T14:35:10;8.46;54.78
69006;SHT31;56061;51.748;19.620;2024-03-08T14:37:37;8.49;54.74
69006;SHT31;56061;51.748;19.620;2024-03-08T14:40:04;8.54;55.13
69006;SHT31;56061;51.748;19.620;2024-03-08T14:42:32;8.60;54.61
69006;SHT31;56061;51.748;19.620;2024-03-08T14:44:58;8.63;53.97
69006;SHT31;56061;51.748;19.620;2024-03-08T14:47:26;8.65;53.71
69006;SHT31;56061;51.748;19.620;2024-03-08T14:49:53;8.61;52.99
69006;SHT31;56061;51.748;19.620;2024-03-08T14:52:21;8.59;53.19
69006;SHT31;56061;51.748;19.620;2024-03-08T14:54:54;8.60;53.32
69006;SHT31;56061;51.748;19.620;2024-03-08T14:57:21;8.61;53.59
69006;SHT31;56061;51.748;19.620;2024-03-08T14:59:47;8.60;53.20
69006;SHT31;56061;51.748;19.620;2024-03-08T15:02:14;8.58;52.60
69006;SHT31;56061;51.748;19.620;2024-03-08T15:04:41;8.57;52.88
69006;SHT31;56061;51.748;19.620;2024-03-08T15:07:07;8.55;53.02
69006;SHT31;56061;51.748;19.620;2024-03-08T15:09:36;8.55;53.45
69006;SHT31;56061;51.748;19.620;2024-03-08T15:12:08;8.56;53.25
69006;SHT31;56061;51.748;19.620;2024-03-08T15:14:39;8.56;52.58
69006;SHT31;56061;51.748;19.620;2024-03-08T15:17:06;8.52;52.35
69006;SHT31;56061;51.748;19.620;2024-03-08T15:19:37;8.50;52.31
69006;SHT31;56061;51.748;19.620;2024-03-08T15:22:04;8.51;52.41
69006;SHT31;56061;51.748;19.620;2024-03-08T15:24:30;8.49;52.48
69006;SHT31;56061;51.748;19.620;2024-03-08T15:26:57;8.47;52.91
69006;SHT31;56061;51.748;19.620;2024-03-08T15:29:25;8.45;53.33
69006;SHT31;56061;51.748;19.620;2024-03-08T15:31:52;8.42;53.41
69006;SHT31;56061;51.748;19.620;2024-03-08T15:34:20;8.40;53.32
69006;SHT31;56061;51.748;19.620;2024-03-08T15:36:52;8.35;53.40
69006;SHT31;56061;51.748;19.620;2024-03-08T15:39:19;8.30;53.52
69006;SHT31;56061;51.748;19.620;2024-03-08T15:41:50;8.23;53.13
69006;SHT31;56061;51.748;19.620;2024-03-08T15:44:17;8.14;52.82